KMYF/MYF METAR and TAF weather

Enter ICAO airport designator
Station Type Date Time Source
KMYF METAR 2020/11/25 22:53 UTC NOAA

KMYF 252253Z AUTO 22008KT 10SM CLR 18/12 A3004 RMK AO2 SLP169 T01830117


Station Type Date Time Source
KMYF Decoded METAR 2020/11/25 22:53 UTC NOAA

SAN DIEGO MONTGOMERY FIELD, CA, United States (KMYF) 32-49N 117-08W 136M
Nov 25, 2020 - 05:53 PM EST / 2020.11.25 2253 UTC
Wind: from the SW (220 degrees) at 9 MPH (8 KT):0
Visibility: 10 mile(s):0
Sky conditions: clear
Temperature: 64.9 F (18.3 C)
Dew Point: 53.1 F (11.7 C)
Relative Humidity: 65%
Pressure (altimeter): 30.04 in. Hg (1017 hPa)
ob: KMYF 252253Z AUTO 22008KT 10SM CLR 18/12 A3004 RMK AO2 SLP169 T01830117
cycle: 23

Station Type Date Time Source
KMYF TAF UTC NOAA

Error!

Example: see airport list